RYR4TT EGPH-LZIB
Flight info
| Callsign | RYR4TT |
|---|---|
| Flight time | 2h 24m |
| Altitude | 35000 |
| Route | TLA Y96 OTBUN/N0438F350 DCT LONAM DCT POVEL DCT OMELO DCT EVIKU DCT BNO DCT ODNEM/N0311F130 A4 BERVA |
| Aircraft | B738/M-SDE2E3FGHIRWXY/LB1 |
Departure
| Time | 2026-05-07 09:37 |
|---|---|
| Airport | Edinburgh Airport (EGPH) |
Arrival
| Time | 2026-05-07 12:01 |
|---|---|
| Airport | M. R. Štefánik Airport (LZIB) |
| Time | Latitude | Longitude | Altitude | Speed | Heading |
|---|---|---|---|---|---|
| 2026-05-07 09:00 | 55.95036 | -3.36091 | 115 ft | 0 kts | 233° |
| 2026-05-07 09:28 | 55.95038 | -3.36085 | 95 ft | 3 kts | 233° |
| 2026-05-07 09:28 | 55.95054 | -3.36046 | 118 ft | 4 kts | 233° |
| 2026-05-07 09:28 | 55.95068 | -3.36014 | 111 ft | 4 kts | 234° |
| 2026-05-07 09:29 | 55.95079 | -3.35973 | 112 ft | 4 kts | 268° |
| 2026-05-07 09:29 | 55.95074 | -3.35929 | 112 ft | 3 kts | 298° |
| 2026-05-07 09:29 | 55.95072 | -3.35924 | 112 ft | 1 kts | 298° |
| 2026-05-07 09:32 | 55.95073 | -3.35926 | 112 ft | 1 kts | 298° |
| 2026-05-07 09:32 | 55.95084 | -3.35962 | 111 ft | 6 kts | 298° |
| 2026-05-07 09:32 | 55.95107 | -3.36077 | 114 ft | 13 kts | 288° |
| 2026-05-07 09:32 | 55.95176 | -3.36142 | 113 ft | 14 kts | 34° |
| 2026-05-07 09:33 | 55.95230 | -3.35997 | 115 ft | 14 kts | 60° |
| 2026-05-07 09:33 | 55.95279 | -3.35854 | 114 ft | 13 kts | 59° |
| 2026-05-07 09:33 | 55.95325 | -3.35717 | 113 ft | 13 kts | 59° |
| 2026-05-07 09:33 | 55.95371 | -3.35582 | 114 ft | 12 kts | 59° |
| 2026-05-07 09:34 | 55.95400 | -3.35495 | 114 ft | 12 kts | 59° |
| 2026-05-07 09:34 | 55.95460 | -3.35411 | 115 ft | 12 kts | 350° |
| 2026-05-07 09:34 | 55.95532 | -3.35480 | 112 ft | 12 kts | 329° |
| 2026-05-07 09:34 | 55.95560 | -3.35597 | 112 ft | 11 kts | 244° |
| 2026-05-07 09:35 | 55.95553 | -3.35618 | 111 ft | 0 kts | 239° |
| 2026-05-07 09:36 | 55.95552 | -3.35618 | 111 ft | 0 kts | 239° |
| 2026-05-07 09:36 | 55.95538 | -3.35661 | 112 ft | 13 kts | 239° |
| 2026-05-07 09:36 | 55.95365 | -3.36174 | 108 ft | 84 kts | 239° |
| 2026-05-07 09:37 | 55.94953 | -3.37388 | 111 ft | 143 kts | 238° |
| 2026-05-07 09:37 | 55.94382 | -3.39089 | 473 ft | 164 kts | 239° |
| 2026-05-07 09:37 | 55.93794 | -3.40872 | 1260 ft | 171 kts | 234° |
| 2026-05-07 09:37 | 55.93157 | -3.42682 | 2039 ft | 173 kts | 233° |
| 2026-05-07 09:38 | 55.92503 | -3.44437 | 2747 ft | 166 kts | 233° |
| 2026-05-07 09:38 | 55.91880 | -3.46163 | 3066 ft | 165 kts | 236° |
| 2026-05-07 09:38 | 55.91304 | -3.47961 | 3285 ft | 168 kts | 239° |
| 2026-05-07 09:38 | 55.90765 | -3.49839 | 3669 ft | 178 kts | 240° |
| 2026-05-07 09:39 | 55.90175 | -3.51844 | 4178 ft | 183 kts | 237° |
| 2026-05-07 09:39 | 55.89454 | -3.53693 | 4857 ft | 179 kts | 231° |
| 2026-05-07 09:39 | 55.88684 | -3.55387 | 5625 ft | 174 kts | 223° |
| 2026-05-07 09:39 | 55.87608 | -3.56416 | 6132 ft | 186 kts | 193° |
| 2026-05-07 09:40 | 55.86222 | -3.56261 | 6269 ft | 218 kts | 166° |
| 2026-05-07 09:40 | 55.84815 | -3.54936 | 6668 ft | 240 kts | 147° |
| 2026-05-07 09:40 | 55.83495 | -3.52902 | 6992 ft | 261 kts | 144° |
| 2026-05-07 09:40 | 55.82057 | -3.50822 | 7556 ft | 270 kts | 146° |
| 2026-05-07 09:41 | 55.80593 | -3.48749 | 8252 ft | 275 kts | 146° |
| 2026-05-07 09:41 | 55.79091 | -3.46618 | 8995 ft | 278 kts | 146° |
| 2026-05-07 09:41 | 55.77575 | -3.44459 | 9745 ft | 281 kts | 146° |
| 2026-05-07 09:41 | 55.76036 | -3.42261 | 10332 ft | 290 kts | 145° |
| 2026-05-07 09:42 | 55.74380 | -3.39901 | 10504 ft | 313 kts | 145° |
| 2026-05-07 09:42 | 55.72655 | -3.37438 | 10792 ft | 329 kts | 144° |
| 2026-05-07 09:42 | 55.70836 | -3.34830 | 11436 ft | 333 kts | 144° |
| 2026-05-07 09:42 | 55.69052 | -3.32269 | 12134 ft | 337 kts | 144° |
| 2026-05-07 09:43 | 55.67194 | -3.29604 | 12824 ft | 342 kts | 144° |
| 2026-05-07 09:43 | 55.65334 | -3.26940 | 13525 ft | 346 kts | 144° |
| 2026-05-07 09:43 | 55.63471 | -3.24276 | 14183 ft | 351 kts | 144° |
| 2026-05-07 09:43 | 55.61559 | -3.21547 | 14818 ft | 356 kts | 144° |
| 2026-05-07 09:44 | 55.59624 | -3.18787 | 15463 ft | 360 kts | 144° |
| 2026-05-07 09:44 | 55.57660 | -3.15991 | 16102 ft | 365 kts | 144° |
| 2026-05-07 09:44 | 55.55672 | -3.13163 | 16712 ft | 370 kts | 144° |
| 2026-05-07 09:44 | 55.53655 | -3.10292 | 17332 ft | 374 kts | 144° |
| 2026-05-07 09:45 | 55.51613 | -3.07399 | 17992 ft | 379 kts | 144° |
| 2026-05-07 09:45 | 55.49547 | -3.04476 | 18565 ft | 383 kts | 144° |
| 2026-05-07 09:45 | 55.47474 | -3.01483 | 19133 ft | 387 kts | 140° |
| 2026-05-07 09:45 | 55.45644 | -2.97965 | 19747 ft | 392 kts | 129° |
| 2026-05-07 09:46 | 55.44159 | -2.93911 | 20344 ft | 397 kts | 120° |
| 2026-05-07 09:46 | 55.43056 | -2.89419 | 20906 ft | 403 kts | 112° |
| 2026-05-07 09:46 | 55.42127 | -2.84741 | 21460 ft | 406 kts | 111° |
| 2026-05-07 09:46 | 55.41218 | -2.80013 | 21993 ft | 410 kts | 110° |
| 2026-05-07 09:47 | 55.40304 | -2.75244 | 22544 ft | 412 kts | 110° |
| 2026-05-07 09:47 | 55.39378 | -2.70448 | 23079 ft | 415 kts | 110° |
| 2026-05-07 09:47 | 55.38438 | -2.65624 | 23582 ft | 419 kts | 111° |
| 2026-05-07 09:47 | 55.37481 | -2.60767 | 24022 ft | 422 kts | 111° |
| 2026-05-07 09:48 | 55.36513 | -2.55890 | 24467 ft | 424 kts | 111° |
| 2026-05-07 09:48 | 55.35535 | -2.50987 | 24891 ft | 427 kts | 111° |
| 2026-05-07 09:48 | 55.34547 | -2.46055 | 25298 ft | 430 kts | 111° |
| 2026-05-07 09:48 | 55.33549 | -2.41093 | 25728 ft | 432 kts | 111° |
| 2026-05-07 09:49 | 55.32544 | -2.36110 | 26150 ft | 434 kts | 111° |
| 2026-05-07 09:49 | 55.31531 | -2.31102 | 26554 ft | 437 kts | 111° |
| 2026-05-07 09:49 | 55.30509 | -2.26057 | 26924 ft | 440 kts | 111° |
| 2026-05-07 09:49 | 55.29480 | -2.20993 | 27316 ft | 442 kts | 111° |
| 2026-05-07 09:50 | 55.28443 | -2.15901 | 27688 ft | 445 kts | 111° |
| 2026-05-07 09:50 | 55.27396 | -2.10775 | 28036 ft | 448 kts | 111° |
| 2026-05-07 09:50 | 55.26341 | -2.05623 | 28403 ft | 450 kts | 111° |
| 2026-05-07 09:50 | 55.25278 | -2.00444 | 28764 ft | 452 kts | 111° |
| 2026-05-07 09:51 | 55.24211 | -1.95258 | 29165 ft | 453 kts | 110° |
| 2026-05-07 09:51 | 55.23138 | -1.90056 | 29558 ft | 454 kts | 111° |
| 2026-05-07 09:51 | 55.22058 | -1.84833 | 29921 ft | 456 kts | 111° |
| 2026-05-07 09:51 | 55.20973 | -1.79606 | 30287 ft | 457 kts | 111° |
| 2026-05-07 09:52 | 55.19890 | -1.74395 | 30709 ft | 455 kts | 111° |
| 2026-05-07 09:52 | 55.18808 | -1.69202 | 31136 ft | 453 kts | 111° |
| 2026-05-07 09:52 | 55.17728 | -1.64038 | 31526 ft | 451 kts | 110° |
| 2026-05-07 09:52 | 55.16650 | -1.58889 | 31853 ft | 452 kts | 111° |
| 2026-05-07 09:53 | 55.15562 | -1.53710 | 32096 ft | 454 kts | 111° |
| 2026-05-07 09:53 | 55.14470 | -1.48529 | 32464 ft | 453 kts | 111° |
| 2026-05-07 09:53 | 55.13384 | -1.43388 | 32928 ft | 450 kts | 111° |
| 2026-05-07 09:53 | 55.12304 | -1.38283 | 33332 ft | 448 kts | 111° |
| 2026-05-07 09:54 | 55.11217 | -1.33165 | 33532 ft | 451 kts | 111° |
| 2026-05-07 09:54 | 55.10121 | -1.28019 | 33857 ft | 450 kts | 111° |
| 2026-05-07 09:54 | 55.09049 | -1.22991 | 34323 ft | 445 kts | 111° |
| 2026-05-07 09:54 | 55.07971 | -1.17948 | 34652 ft | 444 kts | 111° |
| 2026-05-07 09:55 | 55.06886 | -1.12886 | 34788 ft | 447 kts | 111° |
| 2026-05-07 09:55 | 55.05792 | -1.07797 | 35026 ft | 447 kts | 111° |
| 2026-05-07 09:55 | 55.04698 | -1.02722 | 35034 ft | 448 kts | 111° |
| 2026-05-07 09:56 | 55.02496 | -0.92543 | 35056 ft | 450 kts | 111° |
| 2026-05-07 09:56 | 55.00273 | -0.82312 | 35069 ft | 453 kts | 111° |
| 2026-05-07 09:57 | 54.98042 | -0.72092 | 35070 ft | 447 kts | 111° |
| 2026-05-07 09:57 | 54.95839 | -0.62047 | 35073 ft | 443 kts | 111° |
| 2026-05-07 09:58 | 54.93631 | -0.52046 | 35083 ft | 442 kts | 112° |
| 2026-05-07 09:58 | 54.91419 | -0.42061 | 35079 ft | 443 kts | 111° |
| 2026-05-07 09:59 | 54.89195 | -0.32078 | 35086 ft | 443 kts | 111° |
| 2026-05-07 09:59 | 54.86958 | -0.22083 | 35086 ft | 445 kts | 112° |
| 2026-05-07 10:00 | 54.84708 | -0.12069 | 35090 ft | 446 kts | 112° |
| 2026-05-07 10:00 | 54.82442 | -0.02031 | 35082 ft | 447 kts | 112° |
| 2026-05-07 10:01 | 54.80163 | 0.08010 | 35089 ft | 448 kts | 112° |
| 2026-05-07 10:01 | 54.77872 | 0.18058 | 35090 ft | 448 kts | 112° |
| 2026-05-07 10:02 | 54.75574 | 0.28086 | 35092 ft | 448 kts | 112° |
| 2026-05-07 10:02 | 54.73273 | 0.38080 | 35089 ft | 446 kts | 112° |
| 2026-05-07 10:03 | 54.70973 | 0.48026 | 35095 ft | 444 kts | 112° |
| 2026-05-07 10:03 | 54.68675 | 0.57918 | 35082 ft | 442 kts | 112° |
| 2026-05-07 10:04 | 54.66379 | 0.67756 | 35105 ft | 441 kts | 112° |
| 2026-05-07 10:04 | 54.64081 | 0.77554 | 35095 ft | 440 kts | 112° |
| 2026-05-07 10:05 | 54.61777 | 0.87333 | 35109 ft | 440 kts | 112° |
| 2026-05-07 10:05 | 54.59465 | 0.97100 | 35098 ft | 440 kts | 113° |
| 2026-05-07 10:06 | 54.57139 | 1.06882 | 35105 ft | 441 kts | 112° |
| 2026-05-07 10:06 | 54.54821 | 1.16594 | 35105 ft | 442 kts | 112° |
| 2026-05-07 10:07 | 54.52470 | 1.26392 | 35112 ft | 443 kts | 112° |
| 2026-05-07 10:07 | 54.50105 | 1.36204 | 35106 ft | 444 kts | 112° |
| 2026-05-07 10:08 | 54.47730 | 1.46015 | 35120 ft | 444 kts | 112° |
| 2026-05-07 10:08 | 54.45332 | 1.55877 | 35113 ft | 444 kts | 112° |
| 2026-05-07 10:09 | 54.42959 | 1.65589 | 35118 ft | 443 kts | 112° |
| 2026-05-07 10:09 | 54.40571 | 1.75323 | 35108 ft | 442 kts | 112° |
| 2026-05-07 10:10 | 54.38169 | 1.85071 | 35119 ft | 440 kts | 112° |
| 2026-05-07 10:10 | 54.35782 | 1.94715 | 35116 ft | 438 kts | 112° |
| 2026-05-07 10:11 | 54.33412 | 2.04246 | 35120 ft | 437 kts | 112° |
| 2026-05-07 10:11 | 54.31023 | 2.13816 | 35113 ft | 436 kts | 112° |
| 2026-05-07 10:12 | 54.28615 | 2.23418 | 35117 ft | 436 kts | 112° |
| 2026-05-07 10:12 | 54.26237 | 2.32862 | 35118 ft | 435 kts | 112° |
| 2026-05-07 10:13 | 54.23836 | 2.42355 | 35124 ft | 435 kts | 113° |
| 2026-05-07 10:13 | 54.21428 | 2.51836 | 35127 ft | 434 kts | 112° |
| 2026-05-07 10:14 | 54.19016 | 2.61290 | 35117 ft | 434 kts | 112° |
| 2026-05-07 10:14 | 54.16600 | 2.70725 | 35119 ft | 434 kts | 112° |
| 2026-05-07 10:15 | 54.14177 | 2.80143 | 35118 ft | 433 kts | 112° |
| 2026-05-07 10:15 | 54.11749 | 2.89541 | 35120 ft | 433 kts | 112° |
| 2026-05-07 10:16 | 54.09316 | 2.98920 | 35116 ft | 433 kts | 112° |
| 2026-05-07 10:16 | 54.06878 | 3.08280 | 35118 ft | 432 kts | 112° |
| 2026-05-07 10:17 | 54.04433 | 3.17629 | 35121 ft | 432 kts | 112° |
| 2026-05-07 10:17 | 54.01978 | 3.26977 | 35115 ft | 433 kts | 112° |
| 2026-05-07 10:18 | 53.99517 | 3.36308 | 35118 ft | 432 kts | 112° |
| 2026-05-07 10:18 | 53.97049 | 3.45626 | 35117 ft | 433 kts | 113° |
| 2026-05-07 10:19 | 53.94574 | 3.54937 | 35117 ft | 433 kts | 113° |
| 2026-05-07 10:19 | 53.92091 | 3.64240 | 35118 ft | 433 kts | 113° |
| 2026-05-07 10:20 | 53.90022 | 3.71962 | 35114 ft | 433 kts | 113° |
| 2026-05-07 10:20 | 53.87525 | 3.81247 | 35112 ft | 433 kts | 113° |
| 2026-05-07 10:21 | 53.85024 | 3.90515 | 35113 ft | 433 kts | 113° |
| 2026-05-07 10:21 | 53.82718 | 3.99906 | 35113 ft | 431 kts | 109° |
| 2026-05-07 10:22 | 53.80711 | 4.09465 | 35110 ft | 431 kts | 108° |
| 2026-05-07 10:22 | 53.78720 | 4.19028 | 35108 ft | 431 kts | 108° |
| 2026-05-07 10:23 | 53.76700 | 4.28569 | 35112 ft | 431 kts | 108° |
| 2026-05-07 10:23 | 53.74656 | 4.38104 | 35110 ft | 431 kts | 108° |
| 2026-05-07 10:24 | 53.72600 | 4.47623 | 35107 ft | 431 kts | 108° |
| 2026-05-07 10:24 | 53.70535 | 4.57137 | 35107 ft | 432 kts | 109° |
| 2026-05-07 10:25 | 53.68463 | 4.66637 | 35103 ft | 432 kts | 109° |
| 2026-05-07 10:25 | 53.66383 | 4.76139 | 35102 ft | 432 kts | 109° |
| 2026-05-07 10:26 | 53.64294 | 4.85633 | 35102 ft | 432 kts | 109° |
| 2026-05-07 10:26 | 53.62197 | 4.95122 | 35099 ft | 432 kts | 109° |
| 2026-05-07 10:27 | 53.60106 | 5.04539 | 35099 ft | 432 kts | 109° |
| 2026-05-07 10:27 | 53.57994 | 5.14010 | 35101 ft | 432 kts | 109° |
| 2026-05-07 10:28 | 53.55876 | 5.23463 | 35097 ft | 432 kts | 109° |
| 2026-05-07 10:28 | 53.53751 | 5.32906 | 35094 ft | 432 kts | 109° |
| 2026-05-07 10:29 | 53.51605 | 5.42400 | 35090 ft | 431 kts | 109° |
| 2026-05-07 10:29 | 53.49485 | 5.51737 | 35092 ft | 431 kts | 109° |
| 2026-05-07 10:30 | 53.46272 | 5.65807 | 35089 ft | 430 kts | 109° |
| 2026-05-07 10:30 | 53.44121 | 5.75176 | 35089 ft | 430 kts | 109° |
| 2026-05-07 10:31 | 53.41961 | 5.84531 | 35080 ft | 430 kts | 110° |
| 2026-05-07 10:31 | 53.39797 | 5.93881 | 35080 ft | 431 kts | 109° |
| 2026-05-07 10:32 | 53.37622 | 6.03232 | 35073 ft | 431 kts | 110° |
| 2026-05-07 10:32 | 53.35435 | 6.12590 | 35077 ft | 432 kts | 110° |
| 2026-05-07 10:33 | 53.33239 | 6.21946 | 35063 ft | 433 kts | 111° |
| 2026-05-07 10:33 | 53.31030 | 6.31317 | 35069 ft | 434 kts | 111° |
| 2026-05-07 10:34 | 53.28805 | 6.40714 | 35060 ft | 435 kts | 111° |
| 2026-05-07 10:34 | 53.26568 | 6.50120 | 35055 ft | 436 kts | 111° |
| 2026-05-07 10:35 | 53.24318 | 6.59543 | 35078 ft | 437 kts | 111° |
| 2026-05-07 10:35 | 53.22054 | 6.68981 | 35069 ft | 439 kts | 112° |
| 2026-05-07 10:36 | 53.19778 | 6.78428 | 35072 ft | 439 kts | 112° |
| 2026-05-07 10:36 | 53.17491 | 6.87881 | 35067 ft | 440 kts | 112° |
| 2026-05-07 10:37 | 53.15192 | 6.97340 | 35062 ft | 441 kts | 112° |
| 2026-05-07 10:37 | 53.12882 | 7.06804 | 35056 ft | 441 kts | 112° |
| 2026-05-07 10:38 | 53.10566 | 7.16255 | 35045 ft | 441 kts | 113° |
| 2026-05-07 10:38 | 53.08241 | 7.25703 | 35050 ft | 441 kts | 112° |
| 2026-05-07 10:39 | 53.05908 | 7.35138 | 35049 ft | 441 kts | 112° |
| 2026-05-07 10:39 | 53.03564 | 7.44572 | 35050 ft | 441 kts | 113° |
| 2026-05-07 10:40 | 53.01218 | 7.53984 | 35043 ft | 441 kts | 113° |
| 2026-05-07 10:40 | 52.98862 | 7.63396 | 35047 ft | 441 kts | 113° |
| 2026-05-07 10:41 | 52.96513 | 7.72735 | 35044 ft | 442 kts | 113° |
| 2026-05-07 10:41 | 52.94141 | 7.82125 | 35053 ft | 442 kts | 113° |
| 2026-05-07 10:42 | 52.91760 | 7.91512 | 35044 ft | 442 kts | 114° |
| 2026-05-07 10:42 | 52.89372 | 8.00887 | 35054 ft | 442 kts | 113° |
| 2026-05-07 10:43 | 52.86975 | 8.10262 | 35046 ft | 442 kts | 114° |
| 2026-05-07 10:43 | 52.84571 | 8.19622 | 35055 ft | 442 kts | 114° |
| 2026-05-07 10:44 | 52.82159 | 8.28973 | 35045 ft | 442 kts | 114° |
| 2026-05-07 10:44 | 52.79742 | 8.38308 | 35053 ft | 442 kts | 114° |
| 2026-05-07 10:45 | 52.77319 | 8.47628 | 35045 ft | 441 kts | 114° |
| 2026-05-07 10:45 | 52.74890 | 8.56929 | 35049 ft | 441 kts | 114° |
| 2026-05-07 10:46 | 52.72456 | 8.66212 | 35045 ft | 441 kts | 114° |
| 2026-05-07 10:46 | 52.70016 | 8.75482 | 35044 ft | 441 kts | 114° |
| 2026-05-07 10:47 | 52.67570 | 8.84735 | 35040 ft | 440 kts | 114° |
| 2026-05-07 10:47 | 52.65120 | 8.93967 | 35034 ft | 440 kts | 114° |
| 2026-05-07 10:48 | 52.62662 | 9.03191 | 35036 ft | 440 kts | 114° |
| 2026-05-07 10:48 | 52.60215 | 9.12336 | 35042 ft | 440 kts | 114° |
| 2026-05-07 10:49 | 52.57737 | 9.21565 | 35041 ft | 443 kts | 114° |
| 2026-05-07 10:49 | 52.55243 | 9.30809 | 35025 ft | 442 kts | 114° |
| 2026-05-07 10:50 | 52.52745 | 9.40033 | 35049 ft | 442 kts | 114° |
| 2026-05-07 10:50 | 52.50242 | 9.49239 | 35046 ft | 441 kts | 115° |
| 2026-05-07 10:51 | 52.47736 | 9.58423 | 35051 ft | 441 kts | 115° |
| 2026-05-07 10:51 | 52.45226 | 9.67584 | 35048 ft | 441 kts | 115° |
| 2026-05-07 10:52 | 52.42707 | 9.76741 | 35052 ft | 440 kts | 115° |
| 2026-05-07 10:52 | 52.40183 | 9.85876 | 35043 ft | 441 kts | 115° |
| 2026-05-07 10:53 | 52.37647 | 9.95017 | 35053 ft | 441 kts | 115° |
| 2026-05-07 10:53 | 52.35101 | 10.04162 | 35027 ft | 442 kts | 115° |
| 2026-05-07 10:54 | 52.32546 | 10.13303 | 35024 ft | 442 kts | 115° |
| 2026-05-07 10:54 | 52.29988 | 10.22425 | 35018 ft | 441 kts | 116° |
| 2026-05-07 10:55 | 52.27426 | 10.31523 | 35045 ft | 441 kts | 115° |
| 2026-05-07 10:55 | 52.24856 | 10.40608 | 35043 ft | 441 kts | 116° |
| 2026-05-07 10:56 | 52.22283 | 10.49672 | 35048 ft | 440 kts | 116° |
| 2026-05-07 10:56 | 52.19726 | 10.58650 | 35045 ft | 439 kts | 116° |
| 2026-05-07 10:57 | 52.17148 | 10.67664 | 35048 ft | 439 kts | 116° |
| 2026-05-07 10:57 | 52.14562 | 10.76678 | 35032 ft | 439 kts | 116° |
| 2026-05-07 10:58 | 52.11863 | 10.85584 | 35031 ft | 438 kts | 121° |
| 2026-05-07 10:58 | 52.08651 | 10.94015 | 35012 ft | 439 kts | 124° |
| 2026-05-07 10:59 | 52.05352 | 11.02355 | 35013 ft | 438 kts | 124° |
| 2026-05-07 10:59 | 52.02089 | 11.10690 | 35008 ft | 437 kts | 123° |
| 2026-05-07 11:00 | 51.98854 | 11.19023 | 35013 ft | 436 kts | 123° |
| 2026-05-07 11:00 | 51.95627 | 11.27336 | 35014 ft | 435 kts | 123° |
| 2026-05-07 11:01 | 51.92400 | 11.35627 | 35017 ft | 435 kts | 123° |
| 2026-05-07 11:01 | 51.89171 | 11.43897 | 35023 ft | 434 kts | 123° |
| 2026-05-07 11:02 | 51.85934 | 11.52159 | 35025 ft | 435 kts | 123° |
| 2026-05-07 11:02 | 51.82689 | 11.60413 | 35016 ft | 435 kts | 124° |
| 2026-05-07 11:03 | 51.79436 | 11.68662 | 35015 ft | 436 kts | 124° |
| 2026-05-07 11:03 | 51.76192 | 11.76862 | 35000 ft | 436 kts | 124° |
| 2026-05-07 11:04 | 51.72915 | 11.85117 | 35000 ft | 438 kts | 124° |
| 2026-05-07 11:04 | 51.69625 | 11.93380 | 34990 ft | 438 kts | 124° |
| 2026-05-07 11:05 | 51.66327 | 12.01635 | 34988 ft | 439 kts | 124° |
| 2026-05-07 11:05 | 51.63019 | 12.09889 | 34980 ft | 438 kts | 124° |
| 2026-05-07 11:06 | 51.59707 | 12.18129 | 34966 ft | 438 kts | 125° |
| 2026-05-07 11:06 | 51.56399 | 12.26330 | 34985 ft | 437 kts | 125° |
| 2026-05-07 11:07 | 51.53092 | 12.34503 | 34992 ft | 436 kts | 125° |
| 2026-05-07 11:07 | 51.49789 | 12.42642 | 34993 ft | 435 kts | 125° |
| 2026-05-07 11:08 | 51.46486 | 12.50753 | 34989 ft | 434 kts | 125° |
| 2026-05-07 11:08 | 51.43742 | 12.57473 | 34976 ft | 433 kts | 126° |
| 2026-05-07 11:09 | 51.40444 | 12.65528 | 34977 ft | 432 kts | 126° |
| 2026-05-07 11:09 | 51.37147 | 12.73553 | 34975 ft | 431 kts | 126° |
| 2026-05-07 11:10 | 51.33846 | 12.81563 | 34969 ft | 431 kts | 126° |
| 2026-05-07 11:10 | 51.30542 | 12.89556 | 34967 ft | 431 kts | 126° |
| 2026-05-07 11:11 | 51.27233 | 12.97536 | 34950 ft | 431 kts | 127° |
| 2026-05-07 11:11 | 51.23923 | 13.05497 | 34954 ft | 430 kts | 127° |
| 2026-05-07 11:12 | 51.20607 | 13.13445 | 34955 ft | 430 kts | 127° |
| 2026-05-07 11:12 | 51.17291 | 13.21370 | 34960 ft | 430 kts | 127° |
| 2026-05-07 11:13 | 51.13969 | 13.29284 | 34951 ft | 430 kts | 127° |
| 2026-05-07 11:13 | 51.10645 | 13.37181 | 34961 ft | 429 kts | 127° |
| 2026-05-07 11:14 | 51.07317 | 13.45061 | 34954 ft | 429 kts | 127° |
| 2026-05-07 11:14 | 51.03989 | 13.52921 | 34961 ft | 429 kts | 127° |
| 2026-05-07 11:15 | 51.00655 | 13.60767 | 34954 ft | 428 kts | 128° |
| 2026-05-07 11:15 | 50.97338 | 13.68553 | 34954 ft | 429 kts | 128° |
| 2026-05-07 11:16 | 50.93992 | 13.76383 | 34962 ft | 429 kts | 128° |
| 2026-05-07 11:16 | 50.90641 | 13.84203 | 34958 ft | 429 kts | 128° |
| 2026-05-07 11:17 | 50.87283 | 13.92020 | 34941 ft | 429 kts | 128° |
| 2026-05-07 11:17 | 50.83874 | 13.99774 | 34930 ft | 428 kts | 133° |
| 2026-05-07 11:18 | 50.79668 | 14.06284 | 34937 ft | 423 kts | 141° |
| 2026-05-07 11:18 | 50.75278 | 14.12474 | 34933 ft | 423 kts | 141° |
| 2026-05-07 11:19 | 50.70912 | 14.18690 | 34923 ft | 422 kts | 142° |
| 2026-05-07 11:19 | 50.66572 | 14.24910 | 34924 ft | 421 kts | 142° |
| 2026-05-07 11:20 | 50.62238 | 14.31119 | 34915 ft | 421 kts | 142° |
| 2026-05-07 11:20 | 50.57909 | 14.37305 | 34918 ft | 420 kts | 142° |
| 2026-05-07 11:21 | 50.53581 | 14.43473 | 34924 ft | 420 kts | 142° |
| 2026-05-07 11:21 | 50.49252 | 14.49629 | 34922 ft | 419 kts | 142° |
| 2026-05-07 11:22 | 50.44987 | 14.55867 | 34923 ft | 421 kts | 138° |
| 2026-05-07 11:22 | 50.41012 | 14.62617 | 34929 ft | 421 kts | 137° |
| 2026-05-07 11:23 | 50.37076 | 14.69422 | 34925 ft | 421 kts | 137° |
| 2026-05-07 11:23 | 50.33146 | 14.76158 | 34933 ft | 422 kts | 137° |
| 2026-05-07 11:24 | 50.29172 | 14.82913 | 34929 ft | 422 kts | 137° |
| 2026-05-07 11:24 | 50.25183 | 14.89661 | 34910 ft | 422 kts | 138° |
| 2026-05-07 11:25 | 50.21190 | 14.96396 | 34917 ft | 423 kts | 138° |
| 2026-05-07 11:25 | 50.17191 | 15.03122 | 34929 ft | 423 kts | 138° |
| 2026-05-07 11:26 | 50.13186 | 15.09844 | 34924 ft | 423 kts | 138° |
| 2026-05-07 11:26 | 50.09175 | 15.16555 | 34928 ft | 423 kts | 138° |
| 2026-05-07 11:27 | 50.05166 | 15.23249 | 34896 ft | 423 kts | 139° |
| 2026-05-07 11:27 | 50.01163 | 15.29914 | 34926 ft | 421 kts | 139° |
| 2026-05-07 11:28 | 49.97172 | 15.36541 | 34929 ft | 419 kts | 139° |
| 2026-05-07 11:28 | 49.93190 | 15.43137 | 34929 ft | 418 kts | 139° |
| 2026-05-07 11:29 | 49.89222 | 15.49691 | 34936 ft | 416 kts | 139° |
| 2026-05-07 11:29 | 49.85335 | 15.56106 | 34924 ft | 402 kts | 139° |
| 2026-05-07 11:30 | 49.83441 | 15.59228 | 34884 ft | 390 kts | 140° |
| 2026-05-07 11:30 | 49.81615 | 15.62239 | 34908 ft | 376 kts | 141° |
| 2026-05-07 11:30 | 49.79854 | 15.65139 | 34926 ft | 364 kts | 141° |
| 2026-05-07 11:30 | 49.78170 | 15.67906 | 34916 ft | 352 kts | 141° |
| 2026-05-07 11:31 | 49.74776 | 15.73439 | 34959 ft | 358 kts | 141° |
| 2026-05-07 11:31 | 49.71296 | 15.79083 | 34956 ft | 372 kts | 141° |
| 2026-05-07 11:32 | 49.65927 | 15.87825 | 34931 ft | 370 kts | 141° |
| 2026-05-07 11:33 | 49.62428 | 15.93520 | 34904 ft | 364 kts | 141° |
| 2026-05-07 11:33 | 49.58941 | 15.99167 | 34932 ft | 364 kts | 142° |
| 2026-05-07 11:34 | 49.55444 | 16.04814 | 34954 ft | 365 kts | 142° |
| 2026-05-07 11:34 | 49.51932 | 16.10476 | 34944 ft | 366 kts | 142° |
| 2026-05-07 11:35 | 49.48415 | 16.16134 | 34955 ft | 366 kts | 142° |
| 2026-05-07 11:35 | 49.44886 | 16.21800 | 34946 ft | 367 kts | 142° |
| 2026-05-07 11:36 | 49.41351 | 16.27465 | 34929 ft | 367 kts | 142° |
| 2026-05-07 11:36 | 49.37821 | 16.33109 | 34945 ft | 366 kts | 142° |
| 2026-05-07 11:37 | 49.34291 | 16.38740 | 34936 ft | 365 kts | 142° |
| 2026-05-07 11:37 | 49.30774 | 16.44338 | 34956 ft | 364 kts | 142° |
| 2026-05-07 11:38 | 49.27259 | 16.49919 | 34957 ft | 364 kts | 142° |
| 2026-05-07 11:38 | 49.23742 | 16.55492 | 34959 ft | 364 kts | 142° |
| 2026-05-07 11:39 | 49.20247 | 16.61021 | 34916 ft | 363 kts | 142° |
| 2026-05-07 11:39 | 49.18503 | 16.63779 | 34718 ft | 358 kts | 142° |
| 2026-05-07 11:39 | 49.16776 | 16.66503 | 34377 ft | 356 kts | 142° |
| 2026-05-07 11:39 | 49.15049 | 16.69221 | 33998 ft | 356 kts | 143° |
| 2026-05-07 11:40 | 49.13326 | 16.71957 | 33046 ft | 362 kts | 142° |
| 2026-05-07 11:40 | 49.11549 | 16.74799 | 31916 ft | 375 kts | 141° |
| 2026-05-07 11:40 | 49.09748 | 16.77701 | 31189 ft | 376 kts | 141° |
| 2026-05-07 11:40 | 49.07968 | 16.80581 | 30671 ft | 371 kts | 141° |
| 2026-05-07 11:41 | 49.06214 | 16.83417 | 30173 ft | 365 kts | 141° |
| 2026-05-07 11:41 | 49.04478 | 16.86214 | 29567 ft | 361 kts | 141° |
| 2026-05-07 11:41 | 49.02758 | 16.88978 | 28944 ft | 357 kts | 141° |
| 2026-05-07 11:41 | 49.01054 | 16.91708 | 28332 ft | 353 kts | 141° |
| 2026-05-07 11:42 | 48.99367 | 16.94408 | 27674 ft | 350 kts | 141° |
| 2026-05-07 11:42 | 48.97690 | 16.97084 | 26965 ft | 350 kts | 141° |
| 2026-05-07 11:42 | 48.96010 | 16.99762 | 26207 ft | 351 kts | 141° |
| 2026-05-07 11:42 | 48.94286 | 17.02499 | 24941 ft | 366 kts | 141° |
| 2026-05-07 11:43 | 48.92488 | 17.05350 | 23776 ft | 379 kts | 141° |
| 2026-05-07 11:43 | 48.90667 | 17.08255 | 22889 ft | 379 kts | 140° |
| 2026-05-07 11:43 | 48.88866 | 17.11135 | 22161 ft | 372 kts | 140° |
| 2026-05-07 11:43 | 48.87090 | 17.13961 | 21425 ft | 367 kts | 140° |
| 2026-05-07 11:44 | 48.85331 | 17.16751 | 20655 ft | 364 kts | 140° |
| 2026-05-07 11:44 | 48.83586 | 17.19525 | 19884 ft | 362 kts | 140° |
| 2026-05-07 11:44 | 48.81858 | 17.22280 | 19170 ft | 359 kts | 140° |
| 2026-05-07 11:44 | 48.80164 | 17.24983 | 18481 ft | 356 kts | 140° |
| 2026-05-07 11:45 | 48.78461 | 17.27696 | 17737 ft | 354 kts | 139° |
| 2026-05-07 11:45 | 48.76774 | 17.30382 | 17021 ft | 350 kts | 139° |
| 2026-05-07 11:45 | 48.75105 | 17.33036 | 16297 ft | 347 kts | 139° |
| 2026-05-07 11:45 | 48.73446 | 17.35668 | 15577 ft | 344 kts | 138° |
| 2026-05-07 11:46 | 48.71806 | 17.38269 | 15075 ft | 336 kts | 138° |
| 2026-05-07 11:46 | 48.70203 | 17.40812 | 14464 ft | 332 kts | 138° |
| 2026-05-07 11:46 | 48.68627 | 17.43309 | 14025 ft | 324 kts | 137° |
| 2026-05-07 11:46 | 48.67088 | 17.45747 | 13621 ft | 316 kts | 137° |
| 2026-05-07 11:47 | 48.65583 | 17.48127 | 13214 ft | 311 kts | 137° |
| 2026-05-07 11:47 | 48.64096 | 17.50474 | 12845 ft | 309 kts | 137° |
| 2026-05-07 11:47 | 48.62521 | 17.52750 | 12478 ft | 318 kts | 147° |
| 2026-05-07 11:47 | 48.60558 | 17.54324 | 12054 ft | 322 kts | 164° |
| 2026-05-07 11:48 | 48.58373 | 17.55048 | 11649 ft | 320 kts | 173° |
| 2026-05-07 11:48 | 48.56179 | 17.55549 | 11236 ft | 318 kts | 174° |
| 2026-05-07 11:48 | 48.53996 | 17.56023 | 10839 ft | 316 kts | 174° |
| 2026-05-07 11:48 | 48.51831 | 17.56497 | 10467 ft | 313 kts | 174° |
| 2026-05-07 11:49 | 48.49708 | 17.56972 | 10337 ft | 303 kts | 173° |
| 2026-05-07 11:49 | 48.47654 | 17.57440 | 10198 ft | 294 kts | 173° |
| 2026-05-07 11:49 | 48.45663 | 17.57899 | 10080 ft | 285 kts | 173° |
| 2026-05-07 11:49 | 48.43730 | 17.58347 | 9918 ft | 278 kts | 173° |
| 2026-05-07 11:50 | 48.41821 | 17.58790 | 9604 ft | 277 kts | 173° |
| 2026-05-07 11:50 | 48.39924 | 17.59231 | 9314 ft | 275 kts | 173° |
| 2026-05-07 11:50 | 48.38039 | 17.59670 | 9026 ft | 273 kts | 173° |
| 2026-05-07 11:50 | 48.36167 | 17.60106 | 8727 ft | 271 kts | 173° |
| 2026-05-07 11:51 | 48.34304 | 17.60540 | 8440 ft | 270 kts | 173° |
| 2026-05-07 11:51 | 48.32451 | 17.60971 | 8149 ft | 269 kts | 173° |
| 2026-05-07 11:51 | 48.30603 | 17.61401 | 7854 ft | 268 kts | 173° |
| 2026-05-07 11:51 | 48.28766 | 17.61829 | 7574 ft | 267 kts | 173° |
| 2026-05-07 11:52 | 48.26931 | 17.62256 | 7286 ft | 266 kts | 173° |
| 2026-05-07 11:52 | 48.25104 | 17.62681 | 7002 ft | 266 kts | 173° |
| 2026-05-07 11:52 | 48.23280 | 17.63105 | 6716 ft | 265 kts | 173° |
| 2026-05-07 11:52 | 48.21460 | 17.63527 | 6441 ft | 265 kts | 173° |
| 2026-05-07 11:53 | 48.19640 | 17.63947 | 6134 ft | 265 kts | 173° |
| 2026-05-07 11:53 | 48.17816 | 17.64142 | 5817 ft | 262 kts | 191° |
| 2026-05-07 11:53 | 48.16166 | 17.63098 | 5564 ft | 257 kts | 216° |
| 2026-05-07 11:53 | 48.14805 | 17.61369 | 5287 ft | 256 kts | 224° |
| 2026-05-07 11:54 | 48.13536 | 17.59496 | 4997 ft | 255 kts | 226° |
| 2026-05-07 11:54 | 48.12285 | 17.57620 | 4754 ft | 253 kts | 226° |
| 2026-05-07 11:54 | 48.11056 | 17.55792 | 4641 ft | 245 kts | 226° |
| 2026-05-07 11:54 | 48.09876 | 17.54051 | 4528 ft | 238 kts | 225° |
| 2026-05-07 11:55 | 48.08708 | 17.52342 | 4413 ft | 231 kts | 225° |
| 2026-05-07 11:55 | 48.07573 | 17.50693 | 4319 ft | 224 kts | 225° |
| 2026-05-07 11:55 | 48.06471 | 17.49093 | 4214 ft | 217 kts | 225° |
| 2026-05-07 11:55 | 48.05401 | 17.47547 | 4127 ft | 212 kts | 225° |
| 2026-05-07 11:56 | 48.04345 | 17.46020 | 3988 ft | 212 kts | 226° |
| 2026-05-07 11:56 | 48.03559 | 17.44188 | 3745 ft | 212 kts | 259° |
| 2026-05-07 11:56 | 48.03724 | 17.42055 | 3566 ft | 212 kts | 297° |
| 2026-05-07 11:56 | 48.04647 | 17.40341 | 3376 ft | 214 kts | 314° |
| 2026-05-07 11:57 | 48.05708 | 17.38742 | 3128 ft | 217 kts | 314° |
| 2026-05-07 11:57 | 48.06781 | 17.37150 | 2890 ft | 218 kts | 312° |
| 2026-05-07 11:57 | 48.07372 | 17.36238 | 2784 ft | 216 kts | 312° |
| 2026-05-07 11:58 | 48.07633 | 17.35831 | 2732 ft | 216 kts | 313° |
| 2026-05-07 11:59 | 48.08676 | 17.34206 | 2459 ft | 216 kts | 312° |
| 2026-05-07 11:59 | 48.09718 | 17.32589 | 2167 ft | 214 kts | 313° |
| 2026-05-07 11:59 | 48.10732 | 17.31016 | 1885 ft | 205 kts | 313° |
| 2026-05-07 11:59 | 48.11701 | 17.29514 | 1622 ft | 195 kts | 313° |
| 2026-05-07 12:00 | 48.12602 | 17.28111 | 1362 ft | 178 kts | 312° |
| 2026-05-07 12:00 | 48.13397 | 17.26879 | 1255 ft | 158 kts | 312° |
| 2026-05-07 12:00 | 48.14148 | 17.25701 | 990 ft | 154 kts | 311° |
| 2026-05-07 12:00 | 48.14872 | 17.24574 | 694 ft | 148 kts | 313° |
| 2026-05-07 12:01 | 48.15578 | 17.23482 | 484 ft | 144 kts | 311° |
| 2026-05-07 12:01 | 48.16238 | 17.22449 | 424 ft | 123 kts | 315° |
| 2026-05-07 12:01 | 48.16734 | 17.21696 | 424 ft | 80 kts | 315° |
| 2026-05-07 12:01 | 48.17047 | 17.21208 | 428 ft | 44 kts | 313° |
| 2026-05-07 12:02 | 48.17122 | 17.21016 | 425 ft | 15 kts | 244° |
| 2026-05-07 12:02 | 48.17090 | 17.20961 | 428 ft | 0 kts | 226° |